San Antonio del Tachira, Venezuela
Current Conditions -  °F | °C
As of 8:00 AM on Thursday 23 Oct 2014 (Local Time) from SKCC Reporting Station
Few Clouds Few Clouds  
Wind Chill: 79°   Ceiling: Unl
Heat Index: 81°   Visibility: 6mi
Dew Point: 64°   Wind: 0mph
Humidity: 61%   Direction: NA
Pressure: 29.95"   Gusts: NA
Location:  7.81°N, 72.45°W
Report Text: SKCC 231200Z 00000KT 9999 FEW023 26/18 A2995
Loading
Personal Weather Stations






























Interactive Weather Map
Tropical Storm Tracking
New forecast layout! Learn more

10-Day Weather Forecast

Advertisements
Track Severe Weather on mobile